Time;durP1;ratioP1;P1;durP2;ratioP2;P2;SDS_P1;SDS_P2;PMS_P1;PMS_P2;Temp;Humidity;BMP_temperature;BMP_pressure;BME280_temperature;BME280_humidity;BME280_pressure;Samples;Min_cycle;Max_cycle;Signal;HPM_P1;HPM_P2
2022/08/04 00:00:57;;;;;;;0.35;0.28;;;;;;;;;;5076344;28;20517;-73
2022/08/04 00:03:29;;;;;;;0.28;0.20;;;;;;;;;;5078339;28;20049;-72
2022/08/04 00:06:01;;;;;;;0.40;0.30;;;;;;;;;;5081924;28;20063;-72
2022/08/04 00:08:34;;;;;;;0.50;0.43;;;;;;;;;;5069315;28;20132;-73
2022/08/04 00:11:06;;;;;;;0.22;0.22;;;;;;;;;;5072129;28;20299;-72
2022/08/04 00:13:43;;;;;;;0.45;0.45;;;;;;;;;;5076602;28;20052;-73
2022/08/04 00:16:32;;;;;;;1.02;0.50;;;;;;;;;;5068397;28;20120;-74
2022/08/04 00:19:10;;;;;;;0.30;0.30;;;;;;;;;;5079057;28;20566;-73
2022/08/04 00:21:40;;;;;;;0.80;0.77;;;;;;;;;;5073728;28;20044;-73
2022/08/04 00:24:08;;;;;;;0.40;0.40;;;;;;;;;;5081896;28;20584;-73
2022/08/04 00:26:40;;;;;;;1.20;0.63;;;;;;;;;;5075656;28;20053;-73
2022/08/04 00:29:08;;;;;;;1.25;0.47;;;;;;;;;;5082039;28;20098;-74
2022/08/04 00:31:37;;;;;;;0.20;0.20;;;;;;;;;;5071598;28;20151;-72
2022/08/04 00:34:26;;;;;;;1.23;0.63;;;;;;;;;;5071098;28;20564;-73
2022/08/04 00:36:55;;;;;;;0.63;0.43;;;;;;;;;;5076274;28;20051;-73
2022/08/04 00:39:24;;;;;;;0.28;0.28;;;;;;;;;;5078822;28;20419;-73
2022/08/04 00:42:11;;;;;;;1.13;0.60;;;;;;;;;;5073274;28;20083;-73
2022/08/04 00:44:46;;;;;;;1.65;0.40;;;;;;;;;;5073945;28;20055;-73
2022/08/04 00:47:26;;;;;;;0.63;0.52;;;;;;;;;;5076128;28;20178;-74
2022/08/04 00:50:09;;;;;;;0.52;0.52;;;;;;;;;;5072124;28;20622;-74
2022/08/04 00:52:45;;;;;;;0.22;0.22;;;;;;;;;;5082081;28;20123;-73
2022/08/04 00:55:27;;;;;;;0.60;0.30;;;;;;;;;;5076630;28;20142;-73
2022/08/04 00:58:20;;;;;;;0.40;0.30;;;;;;;;;;5083713;28;20398;-72
2022/08/04 01:00:52;;;;;;;0.50;0.50;;;;;;;;;;5066140;28;20462;-73
2022/08/04 01:03:24;;;;;;;0.80;0.40;;;;;;;;;;5074090;28;20036;-74
2022/08/04 01:06:06;;;;;;;0.40;0.40;;;;;;;;;;5069190;28;20468;-73
2022/08/04 01:08:50;;;;;;;0.30;0.30;;;;;;;;;;5061086;28;20179;-73
2022/08/04 01:11:24;;;;;;;0.20;0.20;;;;;;;;;;5054305;28;20156;-73
2022/08/04 01:13:53;;;;;;;;;;;;;;;;;;5062752;28;20587;-73
2022/08/04 01:16:25;;;;;;;0.22;0.15;;;;;;;;;;5073185;28;20010;-73
2022/08/04 01:18:59;;;;;;;0.43;0.43;;;;;;;;;;5080021;28;20040;-72
2022/08/04 01:21:44;;;;;;;0.28;0.25;;;;;;;;;;5071300;28;20051;-73
2022/08/04 01:24:20;;;;;;;0.38;0.38;;;;;;;;;;5071110;28;20124;-73
2022/08/04 01:26:54;;;;;;;0.30;0.30;;;;;;;;;;5075332;28;20053;-73
2022/08/04 01:29:28;;;;;;;1.20;0.60;;;;;;;;;;5072481;28;20510;-72
2022/08/04 01:32:18;;;;;;;0.38;0.38;;;;;;;;;;5076800;28;20052;-72
2022/08/04 01:34:53;;;;;;;0.70;0.45;;;;;;;;;;5076537;28;20044;-73
2022/08/04 01:37:27;;;;;;;0.20;0.20;;;;;;;;;;5083073;28;20341;-73
2022/08/04 01:40:01;;;;;;;1.23;0.60;;;;;;;;;;5081876;28;20146;-73
2022/08/04 01:42:29;;;;;;;0.93;0.30;;;;;;;;;;5074815;28;20144;-73
2022/08/04 01:45:01;;;;;;;0.77;0.40;;;;;;;;;;5080142;28;20253;-73
2022/08/04 01:47:30;;;;;;;0.50;0.50;;;;;;;;;;5081353;28;20469;-73
2022/08/04 01:50:02;;;;;;;0.63;0.50;;;;;;;;;;5083608;28;20079;-73
2022/08/04 01:52:32;;;;;;;1.75;0.95;;;;;;;;;;5080327;28;20044;-73
2022/08/04 01:55:01;;;;;;;0.52;0.50;;;;;;;;;;5078029;28;20504;-73
2022/08/04 01:57:30;;;;;;;0.35;0.30;;;;;;;;;;5079619;28;20638;-73
2022/08/04 02:00:09;;;;;;;1.50;0.38;;;;;;;;;;5081127;28;20154;-73
2022/08/04 02:02:37;;;;;;;0.50;0.50;;;;;;;;;;5077440;28;20122;-73
2022/08/04 02:05:06;;;;;;;0.82;0.60;;;;;;;;;;5071052;28;20522;-73
2022/08/04 02:07:41;;;;;;;0.50;0.50;;;;;;;;;;5076652;28;20487;-73
2022/08/04 02:10:18;;;;;;;0.75;0.30;;;;;;;;;;5075174;28;20083;-74
2022/08/04 02:12:53;;;;;;;0.20;0.20;;;;;;;;;;5083696;28;20044;-73
2022/08/04 02:15:27;;;;;;;1.40;0.63;;;;;;;;;;5071805;28;20506;-73
2022/08/04 02:18:01;;;;;;;0.75;0.50;;;;;;;;;;5062653;28;20484;-72
2022/08/04 02:20:34;;;;;;;0.95;0.68;;;;;;;;;;5066356;28;20048;-73
2022/08/04 02:23:05;;;;;;;0.85;0.80;;;;;;;;;;5064164;28;20075;-73
2022/08/04 02:25:37;;;;;;;1.23;0.30;;;;;;;;;;5068487;28;20140;-74
2022/08/04 02:28:12;;;;;;;0.52;0.30;;;;;;;;;;5080225;28;20142;-73
2022/08/04 02:30:47;;;;;;;0.30;0.30;;;;;;;;;;5075361;28;20293;-75
2022/08/04 02:33:15;;;;;;;;;;;;;;;;;;5085367;28;20338;-73
2022/08/04 02:35:46;;;;;;;0.30;0.22;;;;;;;;;;5073184;28;20011;-73
2022/08/04 02:38:22;;;;;;;0.50;0.35;;;;;;;;;;5081503;28;20045;-73
2022/08/04 02:40:55;;;;;;;0.30;0.30;;;;;;;;;;5079525;28;20048;-74
2022/08/04 02:43:29;;;;;;;0.75;0.20;;;;;;;;;;5081517;28;20491;-73
2022/08/04 02:46:19;;;;;;;0.47;0.30;;;;;;;;;;5071007;28;20498;-73
2022/08/04 02:48:49;;;;;;;0.55;0.55;;;;;;;;;;5059904;28;20049;-72
2022/08/04 02:51:18;;;;;;;0.30;0.30;;;;;;;;;;5068019;28;20136;-74
2022/08/04 02:53:47;;;;;;;0.20;0.17;;;;;;;;;;5069682;28;20123;-73
2022/08/04 02:56:17;;;;;;;0.80;0.55;;;;;;;;;;5062347;28;20131;-73
2022/08/04 02:58:47;;;;;;;0.35;0.35;;;;;;;;;;5060902;28;20155;-74
2022/08/04 03:01:15;;;;;;;3.60;0.40;;;;;;;;;;5062270;28;20136;-73
2022/08/04 03:03:49;;;;;;;0.47;0.47;;;;;;;;;;5067612;28;20052;-73
2022/08/04 03:06:29;;;;;;;0.93;0.22;;;;;;;;;;5057664;28;20421;-73
2022/08/04 03:09:17;;;;;;;0.40;0.35;;;;;;;;;;5064048;28;20139;-73
2022/08/04 03:12:00;;;;;;;0.38;0.32;;;;;;;;;;5061318;28;20367;-73
2022/08/04 03:14:46;;;;;;;0.80;0.47;;;;;;;;;;5057474;28;20757;-73
2022/08/04 03:17:32;;;;;;;0.20;0.20;;;;;;;;;;5079000;28;20095;-73
2022/08/04 03:20:18;;;;;;;0.70;0.70;;;;;;;;;;5085655;28;20093;-73
2022/08/04 03:23:04;;;;;;;0.43;0.30;;;;;;;;;;5082726;28;20127;-73
2022/08/04 03:25:50;;;;;;;0.98;0.63;;;;;;;;;;5075718;28;20390;-74
2022/08/04 03:28:54;;;;;;;0.57;0.25;;;;;;;;;;5081204;28;20048;-73
2022/08/04 03:31:50;;;;;;;0.50;0.35;;;;;;;;;;5080084;28;20080;-73
2022/08/04 03:34:31;;;;;;;0.80;0.40;;;;;;;;;;5048534;28;20357;-73
2022/08/04 03:37:15;;;;;;;0.17;0.17;;;;;;;;;;5065413;28;20119;-73
2022/08/04 03:40:01;;;;;;;0.73;0.73;;;;;;;;;;5064436;28;20057;-73
2022/08/04 03:42:53;;;;;;;0.28;0.28;;;;;;;;;;5065195;28;20185;-73
2022/08/04 03:45:40;;;;;;;0.30;0.30;;;;;;;;;;5060236;28;20098;-73
2022/08/04 03:48:26;;;;;;;0.30;0.28;;;;;;;;;;5065459;28;20505;-73
2022/08/04 03:54:17;;;;;;;0.60;0.60;;;;;;;;;;5064250;28;20236;-73
2022/08/04 03:56:52;;;;;;;0.45;0.40;;;;;;;;;;5075307;28;20131;-73
2022/08/04 03:59:41;;;;;;;0.22;0.20;;;;;;;;;;5077391;28;20087;-73
2022/08/04 04:02:27;;;;;;;0.23;0.23;;;;;;;;;;5079678;28;20097;-74
2022/08/04 04:05:05;;;;;;;0.32;0.30;;;;;;;;;;5074969;28;20049;-73
2022/08/04 04:07:44;;;;;;;1.30;0.40;;;;;;;;;;5085112;28;20504;-73
2022/08/04 04:10:31;;;;;;;0.80;0.52;;;;;;;;;;5075267;28;20399;-73
2022/08/04 04:13:13;;;;;;;0.30;0.30;;;;;;;;;;5077184;28;20461;-73
2022/08/04 04:15:51;;;;;;;0.13;0.13;;;;;;;;;;5080081;28;20131;-73
2022/08/04 04:18:34;;;;;;;0.50;0.40;;;;;;;;;;5074624;28;20049;-73
2022/08/04 04:21:15;;;;;;;0.30;0.20;;;;;;;;;;5075231;28;20128;-73
2022/08/04 04:23:53;;;;;;;0.30;0.30;;;;;;;;;;5079863;28;20094;-73
2022/08/04 04:26:31;;;;;;;0.40;0.40;;;;;;;;;;5076674;28;20407;-73
2022/08/04 04:29:05;;;;;;;0.15;0.15;;;;;;;;;;5074895;28;20516;-74
2022/08/04 04:31:38;;;;;;;0.75;0.50;;;;;;;;;;5079212;28;20040;-74
2022/08/04 04:34:12;;;;;;;0.20;0.20;;;;;;;;;;5074587;28;20106;-73
2022/08/04 04:36:48;;;;;;;0.13;0.10;;;;;;;;;;5077417;28;20128;-73
2022/08/04 04:39:20;;;;;;;0.55;0.50;;;;;;;;;;5076913;28;20076;-73
2022/08/04 04:41:58;;;;;;;0.98;0.30;;;;;;;;;;5070308;28;20080;-73
2022/08/04 04:44:47;;;;;;;1.10;0.45;;;;;;;;;;5071647;28;20507;-73
2022/08/04 04:47:19;;;;;;;0.52;0.50;;;;;;;;;;5039893;28;20116;-73
2022/08/04 04:50:10;;;;;;;0.38;0.25;;;;;;;;;;5073470;28;20052;-73
2022/08/04 04:52:41;;;;;;;0.57;0.40;;;;;;;;;;5074447;28;20135;-73
2022/08/04 04:55:14;;;;;;;0.13;0.13;;;;;;;;;;5073833;28;20059;-74
2022/08/04 04:57:43;;;;;;;0.57;0.32;;;;;;;;;;5059969;28;20049;-73
2022/08/04 05:00:24;;;;;;;0.32;0.32;;;;;;;;;;5067270;28;20131;-74
2022/08/04 05:03:01;;;;;;;0.40;0.32;;;;;;;;;;5059500;28;20123;-72
2022/08/04 05:05:44;;;;;;;0.50;0.20;;;;;;;;;;5055895;28;20040;-73
2022/08/04 05:08:27;;;;;;;1.08;0.63;;;;;;;;;;5077417;28;20175;-73
2022/08/04 05:11:29;;;;;;;0.25;0.22;;;;;;;;;;5075790;28;20048;-73
2022/08/04 05:14:00;;;;;;;0.20;0.20;;;;;;;;;;5068599;28;20080;-72
2022/08/04 05:16:51;;;;;;;0.20;0.20;;;;;;;;;;5063724;28;20036;-72
2022/08/04 05:19:23;;;;;;;0.20;0.20;;;;;;;;;;5057871;28;20135;-72
2022/08/04 05:21:53;;;;;;;0.30;0.30;;;;;;;;;;5067391;28;20049;-72
2022/08/04 05:24:24;;;;;;;0.50;0.40;;;;;;;;;;5062190;28;20522;-72
2022/08/04 05:26:54;;;;;;;0.85;0.35;;;;;;;;;;5076425;28;20045;-71
2022/08/04 05:29:26;;;;;;;0.20;0.20;;;;;;;;;;5077214;28;20113;-73
2022/08/04 05:32:02;;;;;;;0.20;0.20;;;;;;;;;;5077667;28;20359;-72
2022/08/04 05:34:33;;;;;;;0.32;0.32;;;;;;;;;;5078109;28;20139;-72
2022/08/04 05:37:04;;;;;;;0.55;0.55;;;;;;;;;;5075603;28;20127;-72
2022/08/04 05:39:36;;;;;;;0.30;0.30;;;;;;;;;;5076803;28;20143;-74
2022/08/04 05:42:06;;;;;;;0.10;0.10;;;;;;;;;;5081993;28;20059;-69
2022/08/04 05:44:35;;;;;;;1.50;1.02;;;;;;;;;;5075270;28;20059;-69
2022/08/04 05:47:04;;;;;;;0.40;0.40;;;;;;;;;;5082233;28;20083;-70
2022/08/04 05:49:33;;;;;;;0.82;0.63;;;;;;;;;;5076987;28;20360;-69
2022/08/04 05:52:02;;;;;;;3.25;0.70;;;;;;;;;;5080985;28;20483;-70
2022/08/04 05:54:32;;;;;;;1.00;0.40;;;;;;;;;;5077674;28;20143;-70
2022/08/04 05:57:03;;;;;;;2.80;0.90;;;;;;;;;;5080906;28;20131;-69
2022/08/04 05:59:32;;;;;;;0.30;0.30;;;;;;;;;;5081816;28;20520;-69
2022/08/04 06:02:02;;;;;;;0.50;0.50;;;;;;;;;;5075938;28;20044;-69
2022/08/04 06:04:32;;;;;;;0.30;0.30;;;;;;;;;;5079225;28;20082;-70
2022/08/04 06:07:00;;;;;;;3.08;0.60;;;;;;;;;;5080578;28;20151;-69
2022/08/04 06:09:29;;;;;;;3.20;0.38;;;;;;;;;;5085754;28;20055;-69
2022/08/04 06:12:00;;;;;;;0.65;0.43;;;;;;;;;;5085563;28;20140;-69
2022/08/04 06:14:36;;;;;;;1.27;1.02;;;;;;;;;;5088706;28;20048;-70
2022/08/04 06:17:06;;;;;;;0.73;0.70;;;;;;;;;;5066425;28;20061;-69
2022/08/04 06:19:56;;;;;;;0.30;0.25;;;;;;;;;;5070512;28;20055;-69
2022/08/04 06:22:46;;;;;;;0.52;0.52;;;;;;;;;;5064086;28;20044;-72
2022/08/04 06:25:16;;;;;;;0.98;0.70;;;;;;;;;;5070545;28;20128;-70
2022/08/04 06:27:45;;;;;;;0.43;0.43;;;;;;;;;;5080882;28;20742;-70
2022/08/04 06:30:18;;;;;;;0.63;0.52;;;;;;;;;;5076803;28;20571;-69
2022/08/04 06:32:54;;;;;;;0.28;0.28;;;;;;;;;;5077871;28;20052;-69
2022/08/04 06:35:32;;;;;;;0.70;0.40;;;;;;;;;;5074319;28;20036;-70
2022/08/04 06:38:01;;;;;;;0.98;0.68;;;;;;;;;;5077872;28;20053;-70
2022/08/04 06:40:31;;;;;;;0.82;0.65;;;;;;;;;;5084455;28;20036;-70
2022/08/04 06:43:02;;;;;;;0.60;0.55;;;;;;;;;;5073769;28;20059;-69
2022/08/04 06:45:33;;;;;;;0.52;0.52;;;;;;;;;;5069720;28;20575;-69
2022/08/04 06:48:02;;;;;;;4.82;0.73;;;;;;;;;;5059852;28;20241;-69
2022/08/04 06:50:30;;;;;;;0.55;0.50;;;;;;;;;;5069438;28;20504;-70
2022/08/04 06:53:19;;;;;;;0.40;0.40;;;;;;;;;;5064255;28;20071;-69
2022/08/04 06:55:49;;;;;;;1.23;0.65;;;;;;;;;;5058192;28;20481;-69
2022/08/04 06:58:18;;;;;;;0.50;0.50;;;;;;;;;;5068700;28;20040;-70
2022/08/04 07:00:48;;;;;;;1.42;0.35;;;;;;;;;;5066790;28;20479;-69
2022/08/04 07:03:18;;;;;;;0.52;0.47;;;;;;;;;;5064085;28;20102;-70
2022/08/04 07:05:47;;;;;;;0.45;0.45;;;;;;;;;;5066697;28;20068;-70
2022/08/04 07:08:16;;;;;;;1.35;0.73;;;;;;;;;;5069725;28;20099;-70
2022/08/04 07:10:45;;;;;;;1.35;0.55;;;;;;;;;;5067292;28;20082;-69
2022/08/04 07:13:14;;;;;;;0.93;0.80;;;;;;;;;;5066261;28;20087;-70
2022/08/04 07:15:44;;;;;;;1.17;0.82;;;;;;;;;;5067493;28;20322;-70
2022/08/04 07:18:14;;;;;;;2.30;0.60;;;;;;;;;;5067677;28;20139;-70
2022/08/04 07:20:43;;;;;;;1.02;0.65;;;;;;;;;;5052995;28;20049;-70
2022/08/04 07:23:16;;;;;;;1.02;0.80;;;;;;;;;;5064311;28;20551;-71
2022/08/04 07:25:45;;;;;;;0.80;0.60;;;;;;;;;;5065940;28;20340;-69
2022/08/04 07:28:33;;;;;;;1.17;0.68;;;;;;;;;;5085979;28;20051;-71
2022/08/04 07:31:05;;;;;;;1.45;0.80;;;;;;;;;;5089339;28;20047;-70
2022/08/04 07:33:35;;;;;;;0.50;0.43;;;;;;;;;;5087908;28;20044;-70
2022/08/04 07:36:07;;;;;;;1.95;0.60;;;;;;;;;;5079625;28;20128;-69
2022/08/04 07:38:39;;;;;;;;;;;;;;;;;;5076777;28;20475;-70
2022/08/04 07:41:20;;;;;;;0.73;0.60;;;;;;;;;;5071584;28;19956;-70
2022/08/04 07:44:05;;;;;;;1.15;0.82;;;;;;;;;;5078677;28;20044;-70
2022/08/04 07:46:33;;;;;;;2.00;1.10;;;;;;;;;;5082022;28;20044;-71
2022/08/04 07:49:03;;;;;;;1.30;0.60;;;;;;;;;;5072622;28;20048;-71
2022/08/04 07:51:34;;;;;;;1.73;0.73;;;;;;;;;;5069724;28;20126;-71
2022/08/04 07:54:04;;;;;;;0.73;0.70;;;;;;;;;;5070901;28;20102;-71
2022/08/04 07:56:33;;;;;;;1.60;0.60;;;;;;;;;;5068108;28;20102;-71
2022/08/04 07:59:02;;;;;;;0.43;0.40;;;;;;;;;;5070588;28;20091;-71
2022/08/04 08:01:30;;;;;;;1.05;0.90;;;;;;;;;;5082254;28;20044;-71
2022/08/04 08:04:00;;;;;;;0.90;0.63;;;;;;;;;;5072707;28;20048;-72
2022/08/04 08:06:30;;;;;;;0.85;0.63;;;;;;;;;;5077186;28;20057;-72
2022/08/04 08:09:07;;;;;;;0.98;0.82;;;;;;;;;;5079933;28;20041;-71
2022/08/04 08:11:41;;;;;;;1.63;0.82;;;;;;;;;;5085088;28;20056;-73
2022/08/04 08:14:30;;;;;;;0.85;0.68;;;;;;;;;;5079760;28;20139;-71
2022/08/04 08:17:00;;;;;;;0.63;0.52;;;;;;;;;;5078950;28;20048;-72
2022/08/04 08:19:28;;;;;;;0.50;0.50;;;;;;;;;;5080183;28;20048;-71
2022/08/04 08:21:59;;;;;;;1.10;0.70;;;;;;;;;;5078063;28;20094;-71
2022/08/04 08:24:29;;;;;;;0.77;0.60;;;;;;;;;;5072096;28;20048;-71
2022/08/04 08:26:58;;;;;;;0.55;0.55;;;;;;;;;;5077607;28;20561;-71
2022/08/04 08:29:28;;;;;;;3.22;1.10;;;;;;;;;;5074293;28;20400;-72
2022/08/04 08:31:57;;;;;;;0.95;0.63;;;;;;;;;;5084838;28;22569;-72
2022/08/04 08:34:34;;;;;;;1.50;0.65;;;;;;;;;;5070620;28;20408;-71
2022/08/04 08:37:08;;;;;;;0.70;0.55;;;;;;;;;;5084010;28;20075;-73
2022/08/04 08:39:39;;;;;;;2.40;0.73;;;;;;;;;;5085792;28;20059;-71
2022/08/04 08:42:26;;;;;;;2.38;1.48;;;;;;;;;;5089590;28;20037;-71
2022/08/04 08:45:05;;;;;;;0.88;0.60;;;;;;;;;;5082319;28;20045;-70
2022/08/04 08:47:44;;;;;;;0.77;0.73;;;;;;;;;;5071907;28;20110;-71
2022/08/04 08:50:53;;;;;;;0.88;0.57;;;;;;;;;;5077465;28;20046;-71
2022/08/04 08:53:32;;;;;;;0.88;0.65;;;;;;;;;;5083952;28;20083;-72
2022/08/04 08:56:12;;;;;;;0.90;0.60;;;;;;;;;;5071139;28;20477;-72
2022/08/04 08:58:48;;;;;;;1.83;0.70;;;;;;;;;;5062547;28;20094;-73
2022/08/04 09:01:24;;;;;;;1.10;0.80;;;;;;;;;;5057747;28;20501;-73
2022/08/04 09:04:05;;;;;;;1.20;0.70;;;;;;;;;;5058446;28;20393;-73
2022/08/04 09:06:48;;;;;;;1.13;0.55;;;;;;;;;;5061125;28;20052;-72
2022/08/04 09:09:29;;;;;;;1.80;0.60;;;;;;;;;;5056250;28;20469;-73
2022/08/04 09:12:05;;;;;;;0.40;0.30;;;;;;;;;;5057958;28;20044;-73
2022/08/04 09:14:36;;;;;;;1.67;0.82;;;;;;;;;;5063471;28;20076;-74
2022/08/04 09:17:07;;;;;;;1.05;0.82;;;;;;;;;;5079224;28;20411;-73
2022/08/04 09:19:39;;;;;;;0.90;0.70;;;;;;;;;;5074479;28;20455;-72
2022/08/04 09:22:12;;;;;;;0.80;0.60;;;;;;;;;;5078399;28;20057;-72
2022/08/04 09:24:48;;;;;;;0.55;0.55;;;;;;;;;;5077366;28;20048;-74
2022/08/04 09:27:19;;;;;;;0.68;0.63;;;;;;;;;;5071116;28;20064;-73
2022/08/04 09:29:52;;;;;;;0.60;0.60;;;;;;;;;;5076045;28;20064;-73
2022/08/04 09:32:24;;;;;;;0.80;0.80;;;;;;;;;;5084814;28;20052;-72
2022/08/04 09:34:57;;;;;;;0.65;0.60;;;;;;;;;;5078614;28;20133;-76
2022/08/04 09:37:39;;;;;;;1.02;0.70;;;;;;;;;;5111179;27;20048;-73
2022/08/04 09:40:20;;;;;;;0.70;0.60;;;;;;;;;;5075958;28;20545;-73
2022/08/04 09:43:15;;;;;;;1.33;0.60;;;;;;;;;;5080471;28;20462;-72
2022/08/04 09:45:51;;;;;;;1.95;1.20;;;;;;;;;;5081797;28;20044;-73
2022/08/04 09:48:25;;;;;;;1.05;0.52;;;;;;;;;;5076706;28;20108;-73
2022/08/04 09:50:53;;;;;;;;;;;;;;;;;;5076861;28;20048;-73
2022/08/04 09:53:31;;;;;;;0.90;0.63;;;;;;;;;;5080568;28;19971;-73
2022/08/04 09:56:06;;;;;;;0.90;0.70;;;;;;;;;;5072566;28;20056;-74
2022/08/04 09:58:41;;;;;;;1.15;0.70;;;;;;;;;;5071941;28;20226;-72
2022/08/04 10:01:09;;;;;;;;;;;;;;;;;;5080308;28;20072;-72
2022/08/04 10:03:39;;;;;;;2.30;0.70;;;;;;;;;;5075105;28;19968;-73
2022/08/04 10:06:11;;;;;;;0.50;0.50;;;;;;;;;;5077805;28;20040;-73
2022/08/04 10:08:54;;;;;;;0.82;0.75;;;;;;;;;;5076846;28;20041;-72
2022/08/04 10:11:41;;;;;;;0.77;0.47;;;;;;;;;;5079903;28;20060;-72
2022/08/04 10:14:31;;;;;;;1.45;0.93;;;;;;;;;;5076180;28;20124;-72
2022/08/04 10:17:04;;;;;;;1.05;0.90;;;;;;;;;;5076518;28;20053;-74
2022/08/04 10:19:35;;;;;;;1.48;1.17;;;;;;;;;;5081211;28;20083;-71
2022/08/04 10:22:09;;;;;;;0.70;0.60;;;;;;;;;;5081451;28;20118;-71
2022/08/04 10:25:04;;;;;;;0.60;0.60;;;;;;;;;;5076354;28;20446;-71
2022/08/04 10:27:56;;;;;;;1.53;1.00;;;;;;;;;;5074218;28;20052;-71
2022/08/04 10:30:27;;;;;;;0.93;0.63;;;;;;;;;;5083930;28;20119;-71
2022/08/04 10:32:59;;;;;;;0.88;0.60;;;;;;;;;;5078492;28;20560;-72
2022/08/04 10:35:29;;;;;;;1.48;0.82;;;;;;;;;;5073603;28;20508;-70
2022/08/04 10:38:02;;;;;;;1.92;0.70;;;;;;;;;;5072987;28;20091;-72
2022/08/04 10:40:43;;;;;;;1.42;1.00;;;;;;;;;;5075344;28;20044;-72
2022/08/04 10:43:22;;;;;;;1.38;0.70;;;;;;;;;;5072518;28;20109;-71
2022/08/04 10:45:53;;;;;;;1.05;0.80;;;;;;;;;;5079363;28;20052;-71
2022/08/04 10:48:30;;;;;;;1.40;0.90;;;;;;;;;;5081451;28;20548;-72
2022/08/04 10:51:11;;;;;;;5.47;0.70;;;;;;;;;;5077363;28;20049;-70
2022/08/04 10:53:40;;;;;;;3.00;1.27;;;;;;;;;;5075090;28;20102;-70
2022/08/04 10:56:11;;;;;;;0.55;0.55;;;;;;;;;;5068211;28;20155;-71
2022/08/04 10:58:43;;;;;;;1.13;1.02;;;;;;;;;;5069046;28;20155;-71
2022/08/04 11:01:19;;;;;;;0.95;0.82;;;;;;;;;;5065769;28;20048;-71
2022/08/04 11:04:10;;;;;;;1.70;1.30;;;;;;;;;;5066966;28;20052;-72
2022/08/04 11:06:40;;;;;;;2.33;0.88;;;;;;;;;;5075571;28;20520;-71
2022/08/04 11:09:08;;;;;;;0.77;0.63;;;;;;;;;;5073686;28;20477;-71
2022/08/04 11:11:45;;;;;;;1.98;0.70;;;;;;;;;;5081636;28;20056;-71
2022/08/04 11:14:34;;;;;;;4.38;0.90;;;;;;;;;;5079140;28;20440;-70
2022/08/04 11:17:05;;;;;;;0.60;0.60;;;;;;;;;;5063617;28;20539;-72
2022/08/04 11:19:36;;;;;;;1.00;0.73;;;;;;;;;;5067352;28;20522;-72
2022/08/04 11:22:20;;;;;;;1.42;0.80;;;;;;;;;;5066402;28;20051;-72
2022/08/04 11:24:53;;;;;;;0.80;0.80;;;;;;;;;;5067641;28;20189;-71
2022/08/04 11:27:26;;;;;;;1.05;0.73;;;;;;;;;;5081580;28;20109;-70
2022/08/04 11:30:02;;;;;;;1.85;0.65;;;;;;;;;;5081478;28;20078;-70
2022/08/04 11:32:35;;;;;;;1.65;0.90;;;;;;;;;;5085212;28;20400;-70
2022/08/04 11:35:05;;;;;;;0.65;0.60;;;;;;;;;;5078959;28;20120;-71
2022/08/04 11:37:42;;;;;;;0.80;0.60;;;;;;;;;;5087593;28;20054;-73
2022/08/04 11:40:14;;;;;;;0.85;0.80;;;;;;;;;;5080928;28;20083;-70
2022/08/04 11:42:45;;;;;;;1.02;0.60;;;;;;;;;;5080000;28;20546;-72
2022/08/04 11:45:17;;;;;;;1.35;0.98;;;;;;;;;;5087775;28;20080;-71
2022/08/04 11:47:49;;;;;;;0.80;0.70;;;;;;;;;;5077019;28;20044;-71
2022/08/04 11:50:20;;;;;;;1.35;0.63;;;;;;;;;;5081155;28;20135;-71
2022/08/04 11:52:49;;;;;;;0.80;0.50;;;;;;;;;;5069218;28;20083;-72
2022/08/04 11:55:20;;;;;;;1.38;0.63;;;;;;;;;;5080897;28;20090;-70
2022/08/04 11:57:49;;;;;;;1.40;0.60;;;;;;;;;;5082344;28;20060;-71
2022/08/04 12:00:23;;;;;;;1.88;0.85;;;;;;;;;;5078290;28;20055;-72
2022/08/04 12:03:01;;;;;;;0.82;0.73;;;;;;;;;;5069723;28;20049;-72
2022/08/04 12:05:33;;;;;;;0.80;0.52;;;;;;;;;;5068554;28;20060;-71
2022/08/04 12:08:12;;;;;;;0.63;0.60;;;;;;;;;;5063776;28;20052;-72
2022/08/04 12:10:46;;;;;;;0.60;0.60;;;;;;;;;;5066227;28;20125;-73
2022/08/04 12:13:20;;;;;;;1.80;0.80;;;;;;;;;;5068304;28;20088;-70
2022/08/04 12:15:56;;;;;;;0.80;0.60;;;;;;;;;;5072206;28;20068;-70
2022/08/04 12:18:28;;;;;;;0.95;0.60;;;;;;;;;;5073950;28;20050;-75
2022/08/04 12:21:00;;;;;;;0.50;0.47;;;;;;;;;;5072112;28;20040;-74
2022/08/04 12:23:33;;;;;;;3.63;1.00;;;;;;;;;;5076138;28;20436;-71
2022/08/04 12:26:05;;;;;;;3.40;1.02;;;;;;;;;;5075850;28;20847;-71
2022/08/04 12:28:35;;;;;;;0.80;0.77;;;;;;;;;;5075684;28;20103;-71
2022/08/04 12:31:27;;;;;;;0.80;0.65;;;;;;;;;;5078118;28;20055;-71
2022/08/04 12:33:59;;;;;;;0.63;0.55;;;;;;;;;;5080516;28;20127;-71
2022/08/04 12:36:36;;;;;;;1.75;0.90;;;;;;;;;;5075796;28;20511;-72
2022/08/04 12:39:08;;;;;;;0.77;0.70;;;;;;;;;;5069601;28;20106;-71
2022/08/04 12:41:40;;;;;;;1.25;0.80;;;;;;;;;;5080347;28;20047;-71
2022/08/04 12:44:11;;;;;;;0.90;0.70;;;;;;;;;;5077034;28;20047;-71
2022/08/04 12:47:02;;;;;;;0.38;0.38;;;;;;;;;;5074143;28;20050;-71
2022/08/04 12:49:51;;;;;;;3.47;0.80;;;;;;;;;;5080337;28;20049;-71
2022/08/04 12:52:27;;;;;;;0.50;0.50;;;;;;;;;;5074330;28;20083;-72
2022/08/04 12:55:16;;;;;;;0.50;0.50;;;;;;;;;;5075390;28;20057;-71
2022/08/04 12:57:45;;;;;;;0.80;0.60;;;;;;;;;;5074629;28;20074;-71
2022/08/04 13:00:23;;;;;;;1.02;0.52;;;;;;;;;;5074199;28;20125;-70
2022/08/04 13:03:05;;;;;;;0.70;0.50;;;;;;;;;;5079105;28;20525;-72
2022/08/04 13:05:38;;;;;;;0.55;0.43;;;;;;;;;;5070902;28;20045;-70
2022/08/04 13:08:07;;;;;;;1.75;0.77;;;;;;;;;;5076764;28;20328;-70
2022/08/04 13:10:38;;;;;;;1.00;0.57;;;;;;;;;;5068198;28;20056;-70
2022/08/04 13:13:12;;;;;;;0.88;0.70;;;;;;;;;;5076335;28;20127;-70
2022/08/04 13:15:41;;;;;;;1.17;0.75;;;;;;;;;;5067898;28;20055;-71
2022/08/04 13:18:25;;;;;;;1.40;0.73;;;;;;;;;;5079526;28;20056;-70
2022/08/04 13:20:57;;;;;;;;;;;;;;;;;;5079641;28;20081;-70
2022/08/04 13:23:33;;;;;;;0.80;0.80;;;;;;;;;;5070536;28;19928;-72
2022/08/04 13:26:22;;;;;;;1.65;1.00;;;;;;;;;;5077096;28;20151;-71
2022/08/04 13:29:14;;;;;;;0.65;0.50;;;;;;;;;;5080875;28;20040;-70
2022/08/04 13:31:45;;;;;;;0.73;0.60;;;;;;;;;;5081668;28;20070;-70
2022/08/04 13:34:21;;;;;;;0.63;0.60;;;;;;;;;;5078502;28;20741;-70
2022/08/04 13:36:50;;;;;;;0.90;0.68;;;;;;;;;;5081057;28;20040;-69
2022/08/04 13:39:20;;;;;;;1.85;0.60;;;;;;;;;;5085695;28;20552;-70
2022/08/04 13:41:52;;;;;;;2.45;0.70;;;;;;;;;;5073311;28;20056;-69
2022/08/04 13:44:27;;;;;;;0.45;0.45;;;;;;;;;;5076162;28;20052;-72
2022/08/04 13:46:57;;;;;;;0.70;0.50;;;;;;;;;;5076533;28;20049;-70
2022/08/04 13:49:26;;;;;;;2.42;0.82;;;;;;;;;;5073364;28;20044;-70
2022/08/04 13:52:15;;;;;;;0.60;0.50;;;;;;;;;;5075788;28;20063;-70
2022/08/04 13:54:44;;;;;;;1.05;0.60;;;;;;;;;;5072249;28;20132;-70
2022/08/04 13:57:13;;;;;;;0.80;0.50;;;;;;;;;;5078687;28;20465;-70
2022/08/04 13:59:45;;;;;;;0.55;0.47;;;;;;;;;;5076501;28;20048;-71
2022/08/04 14:02:25;;;;;;;1.30;0.65;;;;;;;;;;5083694;28;20044;-70
2022/08/04 14:04:57;;;;;;;0.60;0.40;;;;;;;;;;5080997;28;20276;-70
2022/08/04 14:07:26;;;;;;;0.90;0.77;;;;;;;;;;5071956;28;20048;-70
2022/08/04 14:09:55;;;;;;;0.32;0.32;;;;;;;;;;5079575;28;20060;-71
2022/08/04 14:12:31;;;;;;;1.42;0.70;;;;;;;;;;5080736;28;20155;-69
2022/08/04 14:15:28;;;;;;;0.73;0.50;;;;;;;;;;5077801;28;20044;-70
2022/08/04 14:18:18;;;;;;;0.95;0.73;;;;;;;;;;5064378;28;20041;-71
2022/08/04 14:21:05;;;;;;;0.60;0.60;;;;;;;;;;5061093;28;20045;-71
2022/08/04 14:23:46;;;;;;;0.73;0.73;;;;;;;;;;5059116;28;20151;-69
2022/08/04 14:26:33;;;;;;;0.57;0.57;;;;;;;;;;5065740;28;20040;-70
2022/08/04 14:29:09;;;;;;;1.25;0.80;;;;;;;;;;5083149;28;20409;-70
2022/08/04 14:32:01;;;;;;;1.03;0.60;;;;;;;;;;5084661;28;20094;-70
2022/08/04 14:34:32;;;;;;;2.45;1.10;;;;;;;;;;5084571;28;20443;-69
2022/08/04 14:37:07;;;;;;;0.98;0.63;;;;;;;;;;5082967;28;20056;-69
2022/08/04 14:39:48;;;;;;;1.25;0.85;;;;;;;;;;5078114;28;20076;-71
2022/08/04 14:42:45;;;;;;;0.60;0.50;;;;;;;;;;5080995;28;20055;-69
2022/08/04 14:45:33;;;;;;;0.85;0.60;;;;;;;;;;5079583;28;20057;-70
2022/08/04 14:48:02;;;;;;;0.85;0.57;;;;;;;;;;5059947;28;20095;-69
2022/08/04 14:50:35;;;;;;;0.57;0.50;;;;;;;;;;5057101;28;20049;-70
2022/08/04 14:53:04;;;;;;;0.65;0.55;;;;;;;;;;5056419;28;20041;-69
2022/08/04 14:55:34;;;;;;;1.90;0.77;;;;;;;;;;5067411;28;20044;-71
2022/08/04 14:58:02;;;;;;;0.70;0.65;;;;;;;;;;5079566;28;20056;-69
2022/08/04 15:00:51;;;;;;;2.33;0.70;;;;;;;;;;5072957;28;20044;-69
2022/08/04 15:03:21;;;;;;;0.70;0.43;;;;;;;;;;5071463;28;20052;-72
2022/08/04 15:05:50;;;;;;;0.90;0.80;;;;;;;;;;5072110;28;20037;-69
2022/08/04 15:08:31;;;;;;;0.70;0.43;;;;;;;;;;5076682;28;20044;-70
2022/08/04 15:11:04;;;;;;;0.68;0.50;;;;;;;;;;5072856;28;20563;-70
2022/08/04 15:13:33;;;;;;;0.77;0.50;;;;;;;;;;5071821;28;20048;-70
2022/08/04 15:16:04;;;;;;;1.00;0.70;;;;;;;;;;5075470;28;20495;-70
2022/08/04 15:18:36;;;;;;;0.40;0.40;;;;;;;;;;5074051;28;20045;-71
2022/08/04 15:21:07;;;;;;;0.80;0.50;;;;;;;;;;5068892;28;20250;-70
2022/08/04 15:23:35;;;;;;;1.33;0.68;;;;;;;;;;5073044;28;20076;-70
2022/08/04 15:26:10;;;;;;;0.93;0.50;;;;;;;;;;5077079;28;20412;-71
2022/08/04 15:28:40;;;;;;;0.73;0.63;;;;;;;;;;5074953;28;20055;-73
2022/08/04 15:31:10;;;;;;;2.00;0.70;;;;;;;;;;5071782;28;20052;-70
2022/08/04 15:33:58;;;;;;;0.55;0.50;;;;;;;;;;5069282;28;20135;-72
2022/08/04 15:36:31;;;;;;;0.60;0.60;;;;;;;;;;5078917;28;20055;-72
2022/08/04 15:39:08;;;;;;;1.02;0.70;;;;;;;;;;5081412;28;20474;-71